createdAt,value
2022-09-23T00:01:30.625Z,1.80
2022-09-23T00:04:00.238Z,1.90
2022-09-23T00:06:28.324Z,1.80
2022-09-23T00:08:56.264Z,1.90
2022-09-23T00:11:26.476Z,2.10
2022-09-23T00:13:57.864Z,1.70
2022-09-23T00:16:29.120Z,1.90
2022-09-23T00:18:57.111Z,1.80
2022-09-23T00:21:25.331Z,2.00
2022-09-23T00:23:53.357Z,2.20
2022-09-23T00:26:22.652Z,1.90
2022-09-23T00:28:51.456Z,1.80
2022-09-23T00:31:23.255Z,2.00
2022-09-23T00:33:54.834Z,1.90
2022-09-23T00:36:23.351Z,2.00
2022-09-23T00:38:51.840Z,1.80
2022-09-23T00:41:19.871Z,2.10
2022-09-23T00:43:52.874Z,2.00
2022-09-23T00:46:40.959Z,1.30
2022-09-23T00:49:28.317Z,1.80
2022-09-23T00:52:02.951Z,1.50
2022-09-23T00:54:31.023Z,1.80
2022-09-23T00:57:00.930Z,1.20
2022-09-23T00:59:29.241Z,1.60
2022-09-23T01:01:58.948Z,1.20
2022-09-23T01:04:28.741Z,1.50
2022-09-23T01:06:56.589Z,1.40
2022-09-23T01:09:25.316Z,1.70
2022-09-23T01:12:26.942Z,1.50
2022-09-23T01:15:17.660Z,1.80
2022-09-23T01:18:21.868Z,1.70
2022-09-23T01:21:16.633Z,1.90
2022-09-23T01:24:09.364Z,1.90
2022-09-23T01:26:56.758Z,2.10
2022-09-23T01:30:01.582Z,2.10
2022-09-23T01:32:46.306Z,1.70
2022-09-23T01:35:35.317Z,2.00
2022-09-23T01:38:16.346Z,1.80
2022-09-23T01:40:59.577Z,1.80
2022-09-23T01:43:56.357Z,1.50
2022-09-23T01:46:31.044Z,1.80
2022-09-23T01:49:19.225Z,1.40
2022-09-23T01:51:53.443Z,1.30
2022-09-23T01:54:34.220Z,1.50
2022-09-23T01:57:22.787Z,1.50
2022-09-23T01:59:57.064Z,1.40
2022-09-23T02:02:35.109Z,1.20
2022-09-23T02:05:11.207Z,1.50
2022-09-23T02:07:45.375Z,1.30
2022-09-23T02:10:20.504Z,1.50
2022-09-23T02:12:52.429Z,1.40
2022-09-23T02:15:25.041Z,1.70
2022-09-23T02:17:58.855Z,2.00
2022-09-23T02:20:30.390Z,1.70
2022-09-23T02:23:07.633Z,1.60
2022-09-23T02:25:47.792Z,1.90
2022-09-23T02:28:25.231Z,1.90
2022-09-23T02:31:07.839Z,1.70
2022-09-23T02:33:46.427Z,1.60
2022-09-23T02:36:26.117Z,1.70
2022-09-23T02:39:00.698Z,1.50
2022-09-23T02:42:01.685Z,2.20
2022-09-23T02:44:31.076Z,2.20
2022-09-23T02:46:59.401Z,2.00
2022-09-23T02:49:29.429Z,1.90
2022-09-23T02:52:04.664Z,2.00
2022-09-23T02:54:33.993Z,1.80
2022-09-23T02:57:05.900Z,1.50
2022-09-23T02:59:35.914Z,1.40
2022-09-23T03:02:27.578Z,1.80
2022-09-23T03:05:23.901Z,1.50
2022-09-23T03:08:29.998Z,1.50
2022-09-23T03:11:08.585Z,1.90
2022-09-23T03:14:17.464Z,2.70
2022-09-23T03:17:00.435Z,1.80
2022-09-23T03:19:45.675Z,2.30
2022-09-23T03:22:35.154Z,1.80
2022-09-23T03:25:09.367Z,1.50
2022-09-23T03:27:39.084Z,1.90
2022-09-23T03:30:08.625Z,1.80
2022-09-23T03:32:38.662Z,1.80
2022-09-23T03:35:07.333Z,1.60
2022-09-23T03:37:53.407Z,1.80
2022-09-23T03:40:30.358Z,2.60
2022-09-23T03:43:01.498Z,3.20
2022-09-23T03:45:33.104Z,3.20
2022-09-23T03:48:01.801Z,2.60
2022-09-23T03:50:32.060Z,2.40
2022-09-23T03:53:00.070Z,2.40
2022-09-23T03:55:28.062Z,2.50
2022-09-23T03:57:56.701Z,2.90
2022-09-23T04:00:24.537Z,2.40
2022-09-23T04:02:52.528Z,1.80
2022-09-23T04:05:20.431Z,2.30
2022-09-23T04:07:49.178Z,2.20
2022-09-23T04:10:17.165Z,2.10
2022-09-23T04:12:45.077Z,3.20
2022-09-23T04:15:13.089Z,3.20
2022-09-23T04:17:41.893Z,2.90
2022-09-23T04:20:10.798Z,2.30
2022-09-23T04:22:38.666Z,2.40
2022-09-23T04:25:07.653Z,1.70
2022-09-23T04:27:37.937Z,1.70
2022-09-23T04:30:07.009Z,2.00
2022-09-23T04:32:36.068Z,2.30
2022-09-23T04:35:04.837Z,2.30
2022-09-23T04:37:32.981Z,2.60
2022-09-23T04:40:01.258Z,1.90
2022-09-23T04:42:30.665Z,1.90
2022-09-23T04:45:02.646Z,2.30
2022-09-23T04:48:14.007Z,2.60
2022-09-23T04:51:28.304Z,3.30
2022-09-23T04:54:41.332Z,3.40
2022-09-23T04:57:44.973Z,4.00
2022-09-23T05:00:43.073Z,4.00
2022-09-23T05:03:43.201Z,3.90
2022-09-23T05:07:12.658Z,4.20
2022-09-23T05:10:56.073Z,4.30
2022-09-23T05:14:25.970Z,4.10
2022-09-23T05:17:28.895Z,3.80
2022-09-23T05:20:33.850Z,3.20
2022-09-23T05:26:28.893Z,2.40
2022-09-23T05:29:36.936Z,2.30
2022-09-23T05:32:46.174Z,2.90
2022-09-23T05:36:26.140Z,3.10
2022-09-23T05:39:15.255Z,2.50
2022-09-23T05:42:07.039Z,2.10
2022-09-23T05:45:15.532Z,2.50
2022-09-23T05:47:53.515Z,2.80
2022-09-23T05:51:02.307Z,2.90
2022-09-23T05:54:07.339Z,2.60
2022-09-23T05:57:39.916Z,2.60
2022-09-23T06:00:45.876Z,2.70
2022-09-23T06:03:55.895Z,3.40
2022-09-23T06:07:16.577Z,2.90
2022-09-23T06:10:28.943Z,3.60
2022-09-23T06:13:38.219Z,3.70
2022-09-23T06:16:39.069Z,4.10
2022-09-23T06:19:48.880Z,2.80
2022-09-23T06:22:57.916Z,3.20
2022-09-23T06:26:22.591Z,2.90
2022-09-23T06:32:52.141Z,3.20
2022-09-23T06:37:04.132Z,3.30
2022-09-23T06:39:52.949Z,4.50
2022-09-23T06:42:21.020Z,3.20
2022-09-23T06:44:49.713Z,3.40
2022-09-23T06:47:20.407Z,2.90
2022-09-23T06:49:54.013Z,2.70
2022-09-23T06:52:35.745Z,3.00
2022-09-23T06:55:05.339Z,2.90
2022-09-23T06:57:38.940Z,2.80
2022-09-23T07:20:40.031Z,2.40
2022-09-23T07:23:14.774Z,3.30
2022-09-23T07:26:11.007Z,2.80
2022-09-23T07:33:32.193Z,2.80
2022-09-23T07:36:43.950Z,3.50
2022-09-23T07:43:28.154Z,2.20
2022-09-23T07:47:15.606Z,2.10
2022-09-23T07:50:28.121Z,2.80
2022-09-23T07:53:48.354Z,2.60
2022-09-23T07:56:55.644Z,2.20
2022-09-23T07:59:29.402Z,2.00
2022-09-23T08:02:28.225Z,1.80
2022-09-23T08:05:20.708Z,2.40
2022-09-23T08:08:32.692Z,1.80
2022-09-23T08:12:16.297Z,1.80
2022-09-23T08:15:24.246Z,1.40
2022-09-23T08:18:19.784Z,1.60
2022-09-23T08:20:53.380Z,1.40
2022-09-23T08:24:07.855Z,1.70
2022-09-23T08:26:37.993Z,1.10
2022-09-23T08:29:19.941Z,1.30
2022-09-23T08:31:47.683Z,1.20
2022-09-23T08:34:17.811Z,1.30
2022-09-23T08:36:51.704Z,1.50
2022-09-23T08:39:22.996Z,1.00
2022-09-23T08:42:26.143Z,1.00
2022-09-23T08:45:22.349Z,1.50
2022-09-23T08:48:41.888Z,1.50
2022-09-23T08:51:51.674Z,1.10
2022-09-23T08:54:36.243Z,1.80
2022-09-23T08:57:41.802Z,1.40
2022-09-23T09:00:35.322Z,1.10
2022-09-23T09:07:47.028Z,0.90
2022-09-23T09:11:00.535Z,1.30
2022-09-23T09:17:57.910Z,1.10
2022-09-23T09:18:27.852Z,0.80
2022-09-23T09:21:16.786Z,1.00
2022-09-23T09:24:16.727Z,1.00
2022-09-23T09:27:20.535Z,1.30
2022-09-23T09:29:54.988Z,1.00
2022-09-23T09:32:58.146Z,1.00
2022-09-23T09:36:26.007Z,1.20
2022-09-23T09:38:59.533Z,1.20
2022-09-23T09:43:04.709Z,1.20
2022-09-23T09:49:23.015Z,1.00
2022-09-23T09:52:34.322Z,1.10
2022-09-23T09:55:51.301Z,1.00
2022-09-23T09:58:20.780Z,1.00
2022-09-23T10:00:52.171Z,1.20
2022-09-23T10:03:40.894Z,1.10
2022-09-23T10:06:41.067Z,1.00
2022-09-23T10:09:18.819Z,1.00
2022-09-23T10:12:20.309Z,1.20
2022-09-23T10:18:47.984Z,1.20
2022-09-23T10:21:27.752Z,1.10
2022-09-23T10:27:15.911Z,1.10
2022-09-23T10:30:22.832Z,1.00
2022-09-23T10:33:15.748Z,1.20
2022-09-23T10:39:42.711Z,1.20
2022-09-23T10:42:52.016Z,1.20
2022-09-23T10:46:18.350Z,1.20
2022-09-23T10:49:27.691Z,1.10
2022-09-23T10:52:34.761Z,1.40
2022-09-23T10:55:48.764Z,0.80
2022-09-23T10:59:00.685Z,1.00
2022-09-23T11:05:50.712Z,1.00
2022-09-23T11:09:13.093Z,1.00
2022-09-23T11:15:39.823Z,1.00
2022-09-23T11:18:50.923Z,1.10
2022-09-23T11:22:04.468Z,1.20
2022-09-23T11:28:41.825Z,1.30
2022-09-23T11:35:11.274Z,1.10
2022-09-23T11:38:23.998Z,1.40
2022-09-23T11:41:38.939Z,1.10
2022-09-23T11:44:45.203Z,1.10
2022-09-23T11:53:44.764Z,1.20
2022-09-23T11:56:54.356Z,1.00
2022-09-23T12:00:38.999Z,1.10
2022-09-23T12:20:07.644Z,1.50
2022-09-23T12:22:05.799Z,1.20
2022-09-23T12:24:15.908Z,1.70
2022-09-23T12:27:31.791Z,1.10
2022-09-23T12:38:09.021Z,1.20
2022-09-23T12:41:47.153Z,0.90
2022-09-23T12:58:59.332Z,0.80
2022-09-23T13:05:31.261Z,1.00
2022-09-23T13:14:57.938Z,1.20
2022-09-23T13:18:26.033Z,1.30
2022-09-23T13:21:40.080Z,1.30
2022-09-23T13:30:52.787Z,1.30
2022-09-23T13:33:32.077Z,0.90
2022-09-23T13:36:04.001Z,1.30
2022-09-23T13:38:34.888Z,1.40
2022-09-23T13:41:10.392Z,1.50
2022-09-23T13:43:42.709Z,1.10
2022-09-23T13:46:15.831Z,1.10
2022-09-23T13:48:57.470Z,0.90
2022-09-23T13:51:36.418Z,0.90
2022-09-23T13:57:37.746Z,0.80
2022-09-23T14:00:22.778Z,1.00
2022-09-23T14:02:54.771Z,1.20
2022-09-23T14:04:17.630Z,1.00
2022-09-23T14:05:26.742Z,0.90
2022-09-23T14:08:03.354Z,1.10
2022-09-23T14:10:35.757Z,1.00
2022-09-23T14:13:04.841Z,1.10
2022-09-23T14:16:04.732Z,1.20
2022-09-23T14:19:18.818Z,1.20
2022-09-23T14:22:23.597Z,1.20
2022-09-23T14:24:56.385Z,1.30
2022-09-23T14:27:36.505Z,1.30
2022-09-23T14:30:22.186Z,1.50
2022-09-23T14:33:00.363Z,1.10
2022-09-23T14:35:39.845Z,1.20
2022-09-23T14:38:26.715Z,1.20
2022-09-23T14:41:16.797Z,1.30
2022-09-23T14:43:59.186Z,1.30
2022-09-23T14:46:32.505Z,1.20
2022-09-23T14:49:05.206Z,1.30
2022-09-23T14:51:40.769Z,1.40
2022-09-23T14:54:22.577Z,1.20
2022-09-23T14:56:49.743Z,1.20
2022-09-23T14:59:35.057Z,1.20
2022-09-23T15:02:22.078Z,1.40
2022-09-23T15:04:48.773Z,1.20
2022-09-23T15:07:20.056Z,1.60
2022-09-23T15:09:46.619Z,1.40
2022-09-23T15:12:18.161Z,1.70
2022-09-23T15:14:50.716Z,1.70
2022-09-23T15:17:33.879Z,1.60
2022-09-23T15:20:05.876Z,1.50
2022-09-23T15:22:42.870Z,1.20
2022-09-23T15:25:24.206Z,1.30
2022-09-23T15:28:17.965Z,1.80
2022-09-23T15:30:45.106Z,1.60
2022-09-23T15:33:14.536Z,1.30
2022-09-23T15:35:45.858Z,1.40
2022-09-23T15:38:13.013Z,1.10
2022-09-23T15:40:40.632Z,1.30
2022-09-23T15:43:22.691Z,1.70
2022-09-23T15:45:52.569Z,1.50
2022-09-23T15:48:24.450Z,1.50
2022-09-23T15:50:51.828Z,1.30
2022-09-23T15:53:23.259Z,1.10
2022-09-23T15:55:50.941Z,1.30
2022-09-23T15:58:19.955Z,1.00
2022-09-23T16:00:56.059Z,1.20
2022-09-23T16:03:27.692Z,1.00
2022-09-23T16:06:00.413Z,1.30
2022-09-23T16:08:28.384Z,1.20
2022-09-23T16:10:55.454Z,1.30
2022-09-23T16:13:22.346Z,1.50
2022-09-23T16:15:49.322Z,1.30
2022-09-23T16:18:15.865Z,1.30
2022-09-23T16:20:45.133Z,1.70
2022-09-23T16:23:33.323Z,2.40
2022-09-23T16:26:04.242Z,1.60
2022-09-23T16:28:31.104Z,1.40
2022-09-23T16:30:57.662Z,1.50
2022-09-23T16:33:24.272Z,1.30
2022-09-23T16:35:51.619Z,1.70
2022-09-23T16:38:19.101Z,2.30
2022-09-23T16:40:47.289Z,2.20
2022-09-23T16:43:14.093Z,1.40
2022-09-23T16:45:40.884Z,1.70
2022-09-23T16:48:08.059Z,1.80
2022-09-23T16:50:34.782Z,1.90
2022-09-23T16:53:01.644Z,1.80
2022-09-23T16:55:28.441Z,2.10
2022-09-23T16:57:55.349Z,1.90
2022-09-23T17:00:35.712Z,2.30
2022-09-23T17:03:15.636Z,2.10
2022-09-23T17:05:46.607Z,2.30
2022-09-23T17:08:16.835Z,2.40
2022-09-23T17:10:45.252Z,2.30
2022-09-23T17:13:16.665Z,2.70
2022-09-23T17:15:43.435Z,3.10
2022-09-23T17:18:10.068Z,2.50
2022-09-23T17:20:38.048Z,2.60
2022-09-23T17:23:05.065Z,2.80
2022-09-23T17:25:33.780Z,2.70
2022-09-23T17:28:01.728Z,2.80
2022-09-23T17:30:28.270Z,2.80
2022-09-23T17:32:54.914Z,2.40
2022-09-23T17:35:21.486Z,2.80
2022-09-23T17:37:48.082Z,2.90
2022-09-23T17:40:14.910Z,2.40
2022-09-23T17:42:41.879Z,2.10
2022-09-23T17:45:11.875Z,2.30
2022-09-23T17:47:41.733Z,2.10
2022-09-23T17:50:08.936Z,3.00
2022-09-23T17:52:35.565Z,3.00
2022-09-23T17:55:02.124Z,2.70
2022-09-23T17:57:28.690Z,2.30
2022-09-23T17:59:55.613Z,2.40
2022-09-23T18:02:22.407Z,2.10
2022-09-23T18:04:49.179Z,2.20
2022-09-23T18:07:16.279Z,2.10
2022-09-23T18:09:42.858Z,1.70
2022-09-23T18:12:09.456Z,1.80
2022-09-23T18:14:35.942Z,2.00
2022-09-23T18:17:02.469Z,1.80
2022-09-23T18:19:29.018Z,2.30
2022-09-23T18:21:56.575Z,2.10
2022-09-23T18:24:32.683Z,2.10
2022-09-23T18:27:00.564Z,2.80
2022-09-23T18:29:27.456Z,2.70
2022-09-23T18:31:54.401Z,2.30
2022-09-23T18:34:21.360Z,2.60
2022-09-23T18:36:48.002Z,2.90
2022-09-23T18:39:14.692Z,2.80
2022-09-23T18:41:41.615Z,2.60
2022-09-23T18:44:09.659Z,2.70
2022-09-23T18:46:36.788Z,2.60
2022-09-23T18:49:22.192Z,3.20
2022-09-23T18:51:53.187Z,2.70
2022-09-23T18:54:20.883Z,2.90
2022-09-23T18:56:48.742Z,2.90
2022-09-23T18:59:18.953Z,3.10
2022-09-23T19:01:49.319Z,3.70
2022-09-23T19:04:18.831Z,3.70
2022-09-23T19:06:45.730Z,3.70
2022-09-23T19:09:14.406Z,3.50
2022-09-23T19:11:41.105Z,3.90
2022-09-23T19:14:11.347Z,3.70
2022-09-23T19:16:40.241Z,3.70
2022-09-23T19:19:07.534Z,3.20
2022-09-23T19:21:34.732Z,3.00
2022-09-23T19:24:04.107Z,3.30
2022-09-23T19:26:34.315Z,3.30
2022-09-23T19:29:02.485Z,2.90
2022-09-23T19:31:37.868Z,2.90
2022-09-23T19:34:09.912Z,3.00
2022-09-23T19:37:09.850Z,2.70
2022-09-23T19:40:36.826Z,2.70
2022-09-23T19:43:41.747Z,3.00
2022-09-23T19:46:57.110Z,3.30
2022-09-23T19:50:04.825Z,3.10
2022-09-23T19:53:28.905Z,3.00
2022-09-23T19:56:41.009Z,3.10
2022-09-23T19:59:55.728Z,3.00
2022-09-23T20:03:13.794Z,3.20
2022-09-23T20:06:27.825Z,2.60
2022-09-23T20:09:42.831Z,3.20
2022-09-23T20:13:37.559Z,3.20
2022-09-23T20:17:24.737Z,3.40
2022-09-23T20:20:15.353Z,3.40
2022-09-23T20:23:08.749Z,3.70
2022-09-23T20:26:23.907Z,3.80
2022-09-23T20:29:31.802Z,3.70
2022-09-23T20:32:56.728Z,3.70
2022-09-23T20:36:26.723Z,3.10
2022-09-23T20:39:43.778Z,3.20
2022-09-23T20:42:47.203Z,2.80
2022-09-23T20:45:39.804Z,3.10
2022-09-23T20:52:48.034Z,2.90
2022-09-23T20:56:40.997Z,3.10
2022-09-23T21:00:06.117Z,2.70
2022-09-23T21:03:32.146Z,3.20
2022-09-23T21:07:11.789Z,3.50
2022-09-23T21:10:55.877Z,4.00
2022-09-23T21:14:11.723Z,3.50
2022-09-23T21:17:39.086Z,3.30
2022-09-23T21:21:10.755Z,2.90
2022-09-23T21:28:50.037Z,3.00
2022-09-23T21:32:08.816Z,2.80
2022-09-23T21:35:35.758Z,3.10
2022-09-23T21:38:42.618Z,3.10
2022-09-23T21:42:10.050Z,3.40
2022-09-23T21:45:57.052Z,3.50
2022-09-23T21:49:05.764Z,3.80
2022-09-23T21:52:19.746Z,3.40
2022-09-23T21:55:41.746Z,3.50
2022-09-23T21:58:48.080Z,3.30
2022-09-23T22:02:35.471Z,3.50
2022-09-23T22:06:07.761Z,4.00
2022-09-23T22:09:26.743Z,3.30
2022-09-23T22:16:16.925Z,4.00
2022-09-23T22:19:45.752Z,3.90
2022-09-23T22:23:06.727Z,3.40
2022-09-23T22:26:05.849Z,3.40
2022-09-23T22:29:44.861Z,3.30
2022-09-23T22:33:29.022Z,3.80
2022-09-23T22:36:45.853Z,3.10
2022-09-23T22:40:03.162Z,3.20
2022-09-23T22:43:18.786Z,3.20
2022-09-23T22:46:44.157Z,3.50
2022-09-23T22:49:50.051Z,3.60
2022-09-23T22:53:03.755Z,3.20
2022-09-23T22:56:10.698Z,2.90
2022-09-23T22:59:26.820Z,2.90
2022-09-23T23:02:31.711Z,3.00
2022-09-23T23:05:50.798Z,2.80
2022-09-23T23:09:06.788Z,2.80
2022-09-23T23:12:04.828Z,2.90
2022-09-23T23:15:32.777Z,2.60
2022-09-23T23:18:39.777Z,3.30
2022-09-23T23:21:54.782Z,2.90
2022-09-23T23:25:13.778Z,2.50
2022-09-23T23:28:21.700Z,2.90
2022-09-23T23:31:31.865Z,3.00
2022-09-23T23:34:41.756Z,3.00
2022-09-23T23:37:56.819Z,2.80
2022-09-23T23:41:02.864Z,2.60
2022-09-23T23:44:23.180Z,2.90
2022-09-23T23:48:05.744Z,2.90
2022-09-23T23:51:12.861Z,2.50
2022-09-23T23:54:34.813Z,2.40
2022-09-23T23:57:42.764Z,2.50
